sensor_id;sensor_type;location;lat;lon;timestamp;P1;durP1;ratioP1;P2;durP2;ratioP2
76125;SDS011;65174;48.138;21.002;2023-07-13T00:01:17;5.93;;;4.95;;
76125;SDS011;65174;48.138;21.002;2023-07-13T00:04:20;8.00;;;4.80;;
76125;SDS011;65174;48.138;21.002;2023-07-13T00:07:24;5.33;;;4.00;;
76125;SDS011;65174;48.138;21.002;2023-07-13T00:10:26;5.88;;;3.83;;
76125;SDS011;65174;48.138;21.002;2023-07-13T00:13:29;7.70;;;4.97;;
76125;SDS011;65174;48.138;21.002;2023-07-13T00:16:32;6.93;;;4.65;;
76125;SDS011;65174;48.138;21.002;2023-07-13T00:19:38;8.95;;;4.90;;
76125;SDS011;65174;48.138;21.002;2023-07-13T00:22:40;4.37;;;3.47;;
76125;SDS011;65174;48.138;21.002;2023-07-13T00:25:42;8.50;;;5.05;;
76125;SDS011;65174;48.138;21.002;2023-07-13T00:28:44;7.28;;;4.43;;
76125;SDS011;65174;48.138;21.002;2023-07-13T00:31:46;6.90;;;4.18;;
76125;SDS011;65174;48.138;21.002;2023-07-13T00:34:48;7.60;;;5.20;;
76125;SDS011;65174;48.138;21.002;2023-07-13T00:37:52;5.07;;;4.20;;
76125;SDS011;65174;48.138;21.002;2023-07-13T00:40:54;7.07;;;5.13;;
76125;SDS011;65174;48.138;21.002;2023-07-13T00:43:57;7.97;;;4.53;;
76125;SDS011;65174;48.138;21.002;2023-07-13T00:47:00;10.55;;;5.72;;
76125;SDS011;65174;48.138;21.002;2023-07-13T00:50:02;9.38;;;4.97;;
76125;SDS011;65174;48.138;21.002;2023-07-13T00:53:05;6.90;;;4.27;;
76125;SDS011;65174;48.138;21.002;2023-07-13T00:56:07;8.57;;;5.00;;
76125;SDS011;65174;48.138;21.002;2023-07-13T00:59:11;6.57;;;4.45;;
76125;SDS011;65174;48.138;21.002;2023-07-13T01:02:17;7.15;;;4.50;;
76125;SDS011;65174;48.138;21.002;2023-07-13T01:05:20;7.05;;;4.57;;
76125;SDS011;65174;48.138;21.002;2023-07-13T01:12:01;5.65;;;4.40;;
76125;SDS011;65174;48.138;21.002;2023-07-13T01:15:05;5.03;;;3.78;;
76125;SDS011;65174;48.138;21.002;2023-07-13T01:18:10;8.95;;;5.45;;
76125;SDS011;65174;48.138;21.002;2023-07-13T01:21:14;5.97;;;4.20;;
76125;SDS011;65174;48.138;21.002;2023-07-13T01:24:16;6.67;;;4.70;;
76125;SDS011;65174;48.138;21.002;2023-07-13T01:27:20;7.05;;;4.72;;
76125;SDS011;65174;48.138;21.002;2023-07-13T01:30:25;6.00;;;4.53;;
76125;SDS011;65174;48.138;21.002;2023-07-13T01:33:27;6.30;;;4.60;;
76125;SDS011;65174;48.138;21.002;2023-07-13T01:36:30;7.75;;;5.47;;
76125;SDS011;65174;48.138;21.002;2023-07-13T01:39:33;7.57;;;5.70;;
76125;SDS011;65174;48.138;21.002;2023-07-13T01:42:36;7.53;;;4.53;;
76125;SDS011;65174;48.138;21.002;2023-07-13T01:45:38;8.50;;;4.82;;
76125;SDS011;65174;48.138;21.002;2023-07-13T01:48:40;7.57;;;5.57;;
76125;SDS011;65174;48.138;21.002;2023-07-13T01:51:42;6.85;;;4.90;;
76125;SDS011;65174;48.138;21.002;2023-07-13T01:54:45;7.93;;;5.17;;
76125;SDS011;65174;48.138;21.002;2023-07-13T01:57:47;6.22;;;4.75;;
76125;SDS011;65174;48.138;21.002;2023-07-13T02:00:49;7.03;;;5.22;;
76125;SDS011;65174;48.138;21.002;2023-07-13T02:03:53;6.40;;;5.05;;
76125;SDS011;65174;48.138;21.002;2023-07-13T02:06:55;9.68;;;5.63;;
76125;SDS011;65174;48.138;21.002;2023-07-13T02:09:57;7.23;;;5.37;;
76125;SDS011;65174;48.138;21.002;2023-07-13T02:13:07;6.35;;;4.93;;
76125;SDS011;65174;48.138;21.002;2023-07-13T02:16:09;7.65;;;5.07;;
76125;SDS011;65174;48.138;21.002;2023-07-13T02:19:12;7.80;;;5.20;;
76125;SDS011;65174;48.138;21.002;2023-07-13T02:22:14;8.05;;;4.90;;
76125;SDS011;65174;48.138;21.002;2023-07-13T02:25:16;8.53;;;6.37;;
76125;SDS011;65174;48.138;21.002;2023-07-13T02:28:18;6.88;;;5.35;;
76125;SDS011;65174;48.138;21.002;2023-07-13T02:31:19;5.82;;;4.50;;
76125;SDS011;65174;48.138;21.002;2023-07-13T02:34:21;7.45;;;5.00;;
76125;SDS011;65174;48.138;21.002;2023-07-13T02:37:23;7.70;;;5.55;;
76125;SDS011;65174;48.138;21.002;2023-07-13T02:40:25;10.27;;;4.73;;
76125;SDS011;65174;48.138;21.002;2023-07-13T02:43:27;7.03;;;5.22;;
76125;SDS011;65174;48.138;21.002;2023-07-13T02:46:30;13.48;;;7.82;;
76125;SDS011;65174;48.138;21.002;2023-07-13T02:49:32;8.02;;;5.50;;
76125;SDS011;65174;48.138;21.002;2023-07-13T02:52:34;7.72;;;5.43;;
76125;SDS011;65174;48.138;21.002;2023-07-13T02:55:37;8.00;;;5.50;;
76125;SDS011;65174;48.138;21.002;2023-07-13T02:58:39;8.52;;;5.13;;
76125;SDS011;65174;48.138;21.002;2023-07-13T03:01:42;7.30;;;5.97;;
76125;SDS011;65174;48.138;21.002;2023-07-13T03:04:45;7.88;;;5.82;;
76125;SDS011;65174;48.138;21.002;2023-07-13T03:07:47;8.25;;;5.45;;
76125;SDS011;65174;48.138;21.002;2023-07-13T03:10:58;9.53;;;6.33;;
76125;SDS011;65174;48.138;21.002;2023-07-13T03:14:02;9.40;;;5.43;;
76125;SDS011;65174;48.138;21.002;2023-07-13T03:17:09;7.93;;;5.22;;
76125;SDS011;65174;48.138;21.002;2023-07-13T03:20:14;9.13;;;5.63;;
76125;SDS011;65174;48.138;21.002;2023-07-13T03:23:16;8.45;;;5.55;;
76125;SDS011;65174;48.138;21.002;2023-07-13T03:26:19;9.53;;;6.23;;
76125;SDS011;65174;48.138;21.002;2023-07-13T03:29:22;9.80;;;7.15;;
76125;SDS011;65174;48.138;21.002;2023-07-13T03:32:25;11.05;;;7.68;;
76125;SDS011;65174;48.138;21.002;2023-07-13T03:35:28;7.75;;;5.90;;
76125;SDS011;65174;48.138;21.002;2023-07-13T03:38:30;8.13;;;5.68;;
76125;SDS011;65174;48.138;21.002;2023-07-13T03:41:34;10.67;;;6.30;;
76125;SDS011;65174;48.138;21.002;2023-07-13T03:44:36;7.15;;;5.63;;
76125;SDS011;65174;48.138;21.002;2023-07-13T03:47:41;11.25;;;5.03;;
76125;SDS011;65174;48.138;21.002;2023-07-13T03:50:44;7.53;;;5.07;;
76125;SDS011;65174;48.138;21.002;2023-07-13T03:53:46;7.70;;;5.25;;
76125;SDS011;65174;48.138;21.002;2023-07-13T03:56:51;8.23;;;5.77;;
76125;SDS011;65174;48.138;21.002;2023-07-13T03:59:55;9.85;;;6.47;;
76125;SDS011;65174;48.138;21.002;2023-07-13T04:02:56;7.95;;;5.50;;
76125;SDS011;65174;48.138;21.002;2023-07-13T04:06:02;6.75;;;5.07;;
76125;SDS011;65174;48.138;21.002;2023-07-13T04:09:06;8.32;;;5.43;;
76125;SDS011;65174;48.138;21.002;2023-07-13T04:12:08;9.13;;;5.20;;
76125;SDS011;65174;48.138;21.002;2023-07-13T04:19:20;6.68;;;5.03;;
76125;SDS011;65174;48.138;21.002;2023-07-13T04:22:22;8.15;;;4.93;;
76125;SDS011;65174;48.138;21.002;2023-07-13T04:25:24;7.10;;;5.22;;
76125;SDS011;65174;48.138;21.002;2023-07-13T04:28:26;6.60;;;5.00;;
76125;SDS011;65174;48.138;21.002;2023-07-13T04:31:29;6.60;;;5.03;;
76125;SDS011;65174;48.138;21.002;2023-07-13T04:34:31;7.35;;;4.90;;
76125;SDS011;65174;48.138;21.002;2023-07-13T04:37:33;6.90;;;4.93;;
76125;SDS011;65174;48.138;21.002;2023-07-13T04:40:36;6.20;;;5.07;;
76125;SDS011;65174;48.138;21.002;2023-07-13T04:43:39;7.43;;;5.03;;
76125;SDS011;65174;48.138;21.002;2023-07-13T04:46:40;8.18;;;5.47;;
76125;SDS011;65174;48.138;21.002;2023-07-13T04:49:42;7.60;;;5.15;;
76125;SDS011;65174;48.138;21.002;2023-07-13T04:52:45;8.80;;;5.70;;
76125;SDS011;65174;48.138;21.002;2023-07-13T04:55:48;8.73;;;5.32;;
76125;SDS011;65174;48.138;21.002;2023-07-13T04:58:50;8.57;;;5.93;;
76125;SDS011;65174;48.138;21.002;2023-07-13T05:01:52;8.32;;;5.55;;
76125;SDS011;65174;48.138;21.002;2023-07-13T05:04:54;8.35;;;5.82;;
76125;SDS011;65174;48.138;21.002;2023-07-13T05:07:56;10.25;;;6.45;;
76125;SDS011;65174;48.138;21.002;2023-07-13T05:11:01;8.70;;;5.93;;
76125;SDS011;65174;48.138;21.002;2023-07-13T05:14:05;8.57;;;5.70;;
76125;SDS011;65174;48.138;21.002;2023-07-13T05:17:07;6.80;;;4.88;;
76125;SDS011;65174;48.138;21.002;2023-07-13T05:20:10;7.85;;;4.80;;
76125;SDS011;65174;48.138;21.002;2023-07-13T05:23:11;7.50;;;5.03;;
76125;SDS011;65174;48.138;21.002;2023-07-13T05:26:13;9.23;;;5.20;;
76125;SDS011;65174;48.138;21.002;2023-07-13T05:29:15;8.00;;;5.70;;
76125;SDS011;65174;48.138;21.002;2023-07-13T05:32:18;9.30;;;5.35;;
76125;SDS011;65174;48.138;21.002;2023-07-13T05:39:26;8.63;;;5.45;;
76125;SDS011;65174;48.138;21.002;2023-07-13T05:42:29;9.52;;;5.95;;
76125;SDS011;65174;48.138;21.002;2023-07-13T05:45:32;8.67;;;5.80;;
76125;SDS011;65174;48.138;21.002;2023-07-13T05:48:34;7.38;;;5.30;;
76125;SDS011;65174;48.138;21.002;2023-07-13T05:51:36;8.82;;;5.80;;
76125;SDS011;65174;48.138;21.002;2023-07-13T05:54:38;7.30;;;5.18;;
76125;SDS011;65174;48.138;21.002;2023-07-13T05:57:40;9.02;;;5.55;;
76125;SDS011;65174;48.138;21.002;2023-07-13T06:00:42;7.03;;;5.57;;
76125;SDS011;65174;48.138;21.002;2023-07-13T06:03:44;7.07;;;5.35;;
76125;SDS011;65174;48.138;21.002;2023-07-13T06:06:47;11.52;;;5.90;;
76125;SDS011;65174;48.138;21.002;2023-07-13T06:09:49;8.48;;;5.78;;
76125;SDS011;65174;48.138;21.002;2023-07-13T06:12:51;7.25;;;5.53;;
76125;SDS011;65174;48.138;21.002;2023-07-13T06:15:53;7.30;;;5.20;;
76125;SDS011;65174;48.138;21.002;2023-07-13T06:18:55;9.13;;;5.90;;
76125;SDS011;65174;48.138;21.002;2023-07-13T06:21:57;8.32;;;5.80;;
76125;SDS011;65174;48.138;21.002;2023-07-13T06:28:15;7.38;;;5.50;;
76125;SDS011;65174;48.138;21.002;2023-07-13T06:31:17;8.97;;;4.77;;
76125;SDS011;65174;48.138;21.002;2023-07-13T06:34:19;6.65;;;4.47;;
76125;SDS011;65174;48.138;21.002;2023-07-13T06:37:22;6.88;;;4.82;;
76125;SDS011;65174;48.138;21.002;2023-07-13T06:40:24;10.38;;;4.65;;
76125;SDS011;65174;48.138;21.002;2023-07-13T06:43:25;6.93;;;4.68;;
76125;SDS011;65174;48.138;21.002;2023-07-13T06:46:28;7.03;;;4.77;;
76125;SDS011;65174;48.138;21.002;2023-07-13T06:49:31;6.50;;;4.90;;
76125;SDS011;65174;48.138;21.002;2023-07-13T06:52:33;6.15;;;4.82;;
76125;SDS011;65174;48.138;21.002;2023-07-13T06:55:35;9.23;;;5.30;;
76125;SDS011;65174;48.138;21.002;2023-07-13T06:58:37;8.48;;;6.10;;
76125;SDS011;65174;48.138;21.002;2023-07-13T07:01:39;8.77;;;5.47;;
76125;SDS011;65174;48.138;21.002;2023-07-13T07:04:42;8.80;;;5.90;;
76125;SDS011;65174;48.138;21.002;2023-07-13T07:07:44;9.52;;;6.15;;
76125;SDS011;65174;48.138;21.002;2023-07-13T07:10:46;7.72;;;5.85;;
76125;SDS011;65174;48.138;21.002;2023-07-13T07:13:48;11.55;;;7.05;;
76125;SDS011;65174;48.138;21.002;2023-07-13T07:37:17;11.93;;;6.72;;
76125;SDS011;65174;48.138;21.002;2023-07-13T07:40:22;10.20;;;6.87;;
76125;SDS011;65174;48.138;21.002;2023-07-13T07:43:26;9.90;;;6.78;;
76125;SDS011;65174;48.138;21.002;2023-07-13T07:46:28;9.20;;;6.57;;
76125;SDS011;65174;48.138;21.002;2023-07-13T07:49:32;11.68;;;8.20;;
76125;SDS011;65174;48.138;21.002;2023-07-13T07:52:33;11.77;;;7.03;;
76125;SDS011;65174;48.138;21.002;2023-07-13T07:55:36;9.13;;;5.97;;
76125;SDS011;65174;48.138;21.002;2023-07-13T07:58:41;7.85;;;5.57;;
76125;SDS011;65174;48.138;21.002;2023-07-13T08:01:46;7.53;;;5.25;;
76125;SDS011;65174;48.138;21.002;2023-07-13T08:04:54;7.43;;;5.20;;
76125;SDS011;65174;48.138;21.002;2023-07-13T08:07:59;8.20;;;5.38;;
76125;SDS011;65174;48.138;21.002;2023-07-13T08:11:05;11.40;;;5.63;;
76125;SDS011;65174;48.138;21.002;2023-07-13T08:14:12;8.13;;;4.95;;
76125;SDS011;65174;48.138;21.002;2023-07-13T08:17:14;7.32;;;4.80;;
76125;SDS011;65174;48.138;21.002;2023-07-13T08:20:16;5.78;;;4.68;;
76125;SDS011;65174;48.138;21.002;2023-07-13T08:23:19;6.95;;;6.15;;
76125;SDS011;65174;48.138;21.002;2023-07-13T08:26:21;8.10;;;5.47;;
76125;SDS011;65174;48.138;21.002;2023-07-13T08:29:23;8.80;;;6.03;;
76125;SDS011;65174;48.138;21.002;2023-07-13T08:32:25;8.13;;;5.95;;
76125;SDS011;65174;48.138;21.002;2023-07-13T08:35:28;9.43;;;6.05;;
76125;SDS011;65174;48.138;21.002;2023-07-13T08:38:30;9.98;;;6.85;;
76125;SDS011;65174;48.138;21.002;2023-07-13T08:41:31;9.83;;;6.23;;
76125;SDS011;65174;48.138;21.002;2023-07-13T08:44:48;8.63;;;6.43;;
76125;SDS011;65174;48.138;21.002;2023-07-13T08:47:55;9.07;;;6.50;;
76125;SDS011;65174;48.138;21.002;2023-07-13T08:57:27;7.30;;;5.10;;
76125;SDS011;65174;48.138;21.002;2023-07-13T09:04:22;8.70;;;5.50;;
76125;SDS011;65174;48.138;21.002;2023-07-13T09:07:34;8.27;;;5.47;;
76125;SDS011;65174;48.138;21.002;2023-07-13T09:10:42;7.90;;;5.63;;
76125;SDS011;65174;48.138;21.002;2023-07-13T09:16:51;8.25;;;5.70;;
76125;SDS011;65174;48.138;21.002;2023-07-13T09:19:58;8.25;;;5.78;;
76125;SDS011;65174;48.138;21.002;2023-07-13T09:23:06;8.77;;;5.50;;
76125;SDS011;65174;48.138;21.002;2023-07-13T09:26:16;7.65;;;5.90;;
76125;SDS011;65174;48.138;21.002;2023-07-13T09:29:28;8.67;;;5.40;;
76125;SDS011;65174;48.138;21.002;2023-07-13T09:32:34;7.80;;;5.20;;
76125;SDS011;65174;48.138;21.002;2023-07-13T09:35:38;7.45;;;5.30;;
76125;SDS011;65174;48.138;21.002;2023-07-13T09:59:40;8.65;;;4.95;;
76125;SDS011;65174;48.138;21.002;2023-07-13T10:02:44;4.90;;;3.92;;
76125;SDS011;65174;48.138;21.002;2023-07-13T10:05:46;5.45;;;3.97;;
76125;SDS011;65174;48.138;21.002;2023-07-13T10:08:51;3.33;;;2.60;;
76125;SDS011;65174;48.138;21.002;2023-07-13T10:16:06;2.95;;;2.65;;
76125;SDS011;65174;48.138;21.002;2023-07-13T10:19:17;4.03;;;2.70;;
76125;SDS011;65174;48.138;21.002;2023-07-13T10:22:29;3.97;;;2.80;;
76125;SDS011;65174;48.138;21.002;2023-07-13T10:25:39;4.83;;;3.00;;
76125;SDS011;65174;48.138;21.002;2023-07-13T10:28:46;4.28;;;3.25;;
76125;SDS011;65174;48.138;21.002;2023-07-13T10:31:54;4.10;;;3.17;;
76125;SDS011;65174;48.138;21.002;2023-07-13T10:34:59;3.72;;;3.00;;
76125;SDS011;65174;48.138;21.002;2023-07-13T10:38:04;4.15;;;2.75;;
76125;SDS011;65174;48.138;21.002;2023-07-13T10:41:11;4.50;;;3.70;;
76125;SDS011;65174;48.138;21.002;2023-07-13T10:44:21;5.03;;;3.00;;
76125;SDS011;65174;48.138;21.002;2023-07-13T10:47:27;4.15;;;3.22;;
76125;SDS011;65174;48.138;21.002;2023-07-13T10:50:30;3.50;;;2.40;;
76125;SDS011;65174;48.138;21.002;2023-07-13T10:53:34;4.90;;;1.98;;
76125;SDS011;65174;48.138;21.002;2023-07-13T10:56:38;2.60;;;2.00;;
76125;SDS011;65174;48.138;21.002;2023-07-13T10:59:41;5.95;;;1.85;;
76125;SDS011;65174;48.138;21.002;2023-07-13T11:02:43;4.60;;;2.00;;
76125;SDS011;65174;48.138;21.002;2023-07-13T11:15:49;1.90;;;1.70;;
76125;SDS011;65174;48.138;21.002;2023-07-13T11:18:52;2.13;;;1.80;;
76125;SDS011;65174;48.138;21.002;2023-07-13T11:28:29;2.10;;;1.40;;
76125;SDS011;65174;48.138;21.002;2023-07-13T11:31:33;2.17;;;1.90;;
76125;SDS011;65174;48.138;21.002;2023-07-13T11:34:37;1.55;;;1.45;;
76125;SDS011;65174;48.138;21.002;2023-07-13T11:37:40;1.58;;;1.48;;
76125;SDS011;65174;48.138;21.002;2023-07-13T11:40:43;1.70;;;1.33;;
76125;SDS011;65174;48.138;21.002;2023-07-13T11:44:06;4.43;;;1.47;;
76125;SDS011;65174;48.138;21.002;2023-07-13T11:47:16;2.03;;;1.65;;
76125;SDS011;65174;48.138;21.002;2023-07-13T11:50:23;1.83;;;1.48;;
76125;SDS011;65174;48.138;21.002;2023-07-13T11:53:26;2.00;;;1.58;;
76125;SDS011;65174;48.138;21.002;2023-07-13T11:56:31;2.35;;;1.80;;
76125;SDS011;65174;48.138;21.002;2023-07-13T11:59:36;2.77;;;1.70;;
76125;SDS011;65174;48.138;21.002;2023-07-13T12:02:45;2.70;;;1.90;;
76125;SDS011;65174;48.138;21.002;2023-07-13T12:06:06;2.17;;;1.67;;
76125;SDS011;65174;48.138;21.002;2023-07-13T12:09:26;2.65;;;1.85;;
76125;SDS011;65174;48.138;21.002;2023-07-13T12:12:29;1.90;;;1.50;;
76125;SDS011;65174;48.138;21.002;2023-07-13T12:15:42;2.27;;;1.80;;
76125;SDS011;65174;48.138;21.002;2023-07-13T12:18:46;1.95;;;1.42;;
76125;SDS011;65174;48.138;21.002;2023-07-13T12:21:50;2.20;;;2.00;;
76125;SDS011;65174;48.138;21.002;2023-07-13T12:24:54;2.72;;;1.95;;
76125;SDS011;65174;48.138;21.002;2023-07-13T12:27:57;2.47;;;1.70;;
76125;SDS011;65174;48.138;21.002;2023-07-13T12:31:01;3.93;;;1.53;;
76125;SDS011;65174;48.138;21.002;2023-07-13T12:34:09;2.65;;;1.67;;
76125;SDS011;65174;48.138;21.002;2023-07-13T12:37:13;2.78;;;1.48;;
76125;SDS011;65174;48.138;21.002;2023-07-13T12:40:16;2.17;;;1.75;;
76125;SDS011;65174;48.138;21.002;2023-07-13T12:43:21;1.85;;;1.70;;
76125;SDS011;65174;48.138;21.002;2023-07-13T12:46:24;2.90;;;1.60;;
76125;SDS011;65174;48.138;21.002;2023-07-13T12:49:31;1.95;;;1.67;;
76125;SDS011;65174;48.138;21.002;2023-07-13T12:52:38;2.08;;;1.88;;
76125;SDS011;65174;48.138;21.002;2023-07-13T12:55:42;1.92;;;1.60;;
76125;SDS011;65174;48.138;21.002;2023-07-13T12:59:01;2.58;;;2.08;;
76125;SDS011;65174;48.138;21.002;2023-07-13T13:05:25;1.88;;;1.67;;
76125;SDS011;65174;48.138;21.002;2023-07-13T13:08:28;1.92;;;1.70;;
76125;SDS011;65174;48.138;21.002;2023-07-13T13:11:31;2.05;;;1.50;;
76125;SDS011;65174;48.138;21.002;2023-07-13T13:14:33;2.20;;;1.52;;
76125;SDS011;65174;48.138;21.002;2023-07-13T13:17:35;1.87;;;1.23;;
76125;SDS011;65174;48.138;21.002;2023-07-13T13:20:37;1.60;;;1.40;;
76125;SDS011;65174;48.138;21.002;2023-07-13T13:23:39;3.83;;;1.52;;
76125;SDS011;65174;48.138;21.002;2023-07-13T13:26:41;1.40;;;1.00;;
76125;SDS011;65174;48.138;21.002;2023-07-13T13:29:45;7.32;;;1.80;;
76125;SDS011;65174;48.138;21.002;2023-07-13T13:32:47;2.23;;;1.80;;
76125;SDS011;65174;48.138;21.002;2023-07-13T13:35:50;2.28;;;1.40;;
76125;SDS011;65174;48.138;21.002;2023-07-13T13:38:52;2.75;;;1.75;;
76125;SDS011;65174;48.138;21.002;2023-07-13T13:41:54;2.05;;;1.40;;
76125;SDS011;65174;48.138;21.002;2023-07-13T13:44:56;1.70;;;1.60;;
76125;SDS011;65174;48.138;21.002;2023-07-13T13:47:58;1.63;;;1.47;;
76125;SDS011;65174;48.138;21.002;2023-07-13T13:51:01;1.92;;;1.38;;
76125;SDS011;65174;48.138;21.002;2023-07-13T13:54:11;2.80;;;1.77;;
76125;SDS011;65174;48.138;21.002;2023-07-13T13:57:15;2.42;;;1.40;;
76125;SDS011;65174;48.138;21.002;2023-07-13T14:00:17;1.88;;;1.77;;
76125;SDS011;65174;48.138;21.002;2023-07-13T14:03:20;2.30;;;1.30;;
76125;SDS011;65174;48.138;21.002;2023-07-13T14:06:23;1.50;;;1.40;;
76125;SDS011;65174;48.138;21.002;2023-07-13T14:09:25;1.85;;;1.60;;
76125;SDS011;65174;48.138;21.002;2023-07-13T14:12:27;2.20;;;1.27;;
76125;SDS011;65174;48.138;21.002;2023-07-13T14:15:31;1.65;;;1.35;;
76125;SDS011;65174;48.138;21.002;2023-07-13T14:18:33;1.47;;;1.33;;
76125;SDS011;65174;48.138;21.002;2023-07-13T14:21:35;1.98;;;1.30;;
76125;SDS011;65174;48.138;21.002;2023-07-13T14:24:37;1.92;;;1.70;;
76125;SDS011;65174;48.138;21.002;2023-07-13T14:27:40;1.45;;;1.35;;
76125;SDS011;65174;48.138;21.002;2023-07-13T14:30:42;1.90;;;1.55;;
76125;SDS011;65174;48.138;21.002;2023-07-13T14:33:44;2.10;;;1.33;;
76125;SDS011;65174;48.138;21.002;2023-07-13T14:36:47;1.38;;;1.08;;
76125;SDS011;65174;48.138;21.002;2023-07-13T14:39:51;1.13;;;0.90;;
76125;SDS011;65174;48.138;21.002;2023-07-13T14:42:54;1.75;;;1.13;;
76125;SDS011;65174;48.138;21.002;2023-07-13T14:45:56;1.42;;;1.33;;
76125;SDS011;65174;48.138;21.002;2023-07-13T14:49:05;1.23;;;0.90;;
76125;SDS011;65174;48.138;21.002;2023-07-13T14:52:23;3.17;;;0.90;;
76125;SDS011;65174;48.138;21.002;2023-07-13T14:55:28;2.50;;;1.45;;
76125;SDS011;65174;48.138;21.002;2023-07-13T14:58:30;3.38;;;1.60;;
76125;SDS011;65174;48.138;21.002;2023-07-13T15:01:37;1.20;;;0.93;;
76125;SDS011;65174;48.138;21.002;2023-07-13T15:04:40;1.57;;;1.43;;
76125;SDS011;65174;48.138;21.002;2023-07-13T15:07:42;2.00;;;1.10;;
76125;SDS011;65174;48.138;21.002;2023-07-13T15:10:44;1.60;;;1.50;;
76125;SDS011;65174;48.138;21.002;2023-07-13T15:13:46;1.40;;;1.10;;
76125;SDS011;65174;48.138;21.002;2023-07-13T15:16:49;2.05;;;1.30;;
76125;SDS011;65174;48.138;21.002;2023-07-13T15:19:53;1.70;;;1.50;;
76125;SDS011;65174;48.138;21.002;2023-07-13T15:22:55;1.63;;;1.20;;
76125;SDS011;65174;48.138;21.002;2023-07-13T15:25:58;3.58;;;1.63;;
76125;SDS011;65174;48.138;21.002;2023-07-13T15:29:00;1.63;;;1.20;;
76125;SDS011;65174;48.138;21.002;2023-07-13T15:32:02;1.40;;;1.30;;
76125;SDS011;65174;48.138;21.002;2023-07-13T15:35:05;1.57;;;1.23;;
76125;SDS011;65174;48.138;21.002;2023-07-13T15:38:14;1.40;;;1.25;;
76125;SDS011;65174;48.138;21.002;2023-07-13T15:41:23;1.67;;;1.33;;
76125;SDS011;65174;48.138;21.002;2023-07-13T15:47:33;2.95;;;1.30;;
76125;SDS011;65174;48.138;21.002;2023-07-13T15:50:41;1.40;;;1.10;;
76125;SDS011;65174;48.138;21.002;2023-07-13T15:53:45;0.85;;;0.60;;
76125;SDS011;65174;48.138;21.002;2023-07-13T15:56:52;1.13;;;0.80;;
76125;SDS011;65174;48.138;21.002;2023-07-13T15:59:56;0.57;;;0.30;;
76125;SDS011;65174;48.138;21.002;2023-07-13T16:02:58;0.47;;;0.43;;
76125;SDS011;65174;48.138;21.002;2023-07-13T16:06:00;0.43;;;0.30;;
76125;SDS011;65174;48.138;21.002;2023-07-13T16:09:03;0.32;;;0.20;;
76125;SDS011;65174;48.138;21.002;2023-07-13T16:12:13;0.50;;;0.32;;
76125;SDS011;65174;48.138;21.002;2023-07-13T16:15:17;0.40;;;0.30;;
76125;SDS011;65174;48.138;21.002;2023-07-13T16:18:22;0.57;;;0.45;;
76125;SDS011;65174;48.138;21.002;2023-07-13T16:21:27;0.40;;;0.20;;
76125;SDS011;65174;48.138;21.002;2023-07-13T16:24:31;0.30;;;0.20;;
76125;SDS011;65174;48.138;21.002;2023-07-13T16:27:33;0.70;;;0.50;;
76125;SDS011;65174;48.138;21.002;2023-07-13T16:30:36;0.45;;;0.40;;
76125;SDS011;65174;48.138;21.002;2023-07-13T16:33:38;0.60;;;0.50;;
76125;SDS011;65174;48.138;21.002;2023-07-13T16:36:40;0.70;;;0.40;;
76125;SDS011;65174;48.138;21.002;2023-07-13T16:39:46;1.73;;;0.45;;
76125;SDS011;65174;48.138;21.002;2023-07-13T16:42:51;0.73;;;0.40;;
76125;SDS011;65174;48.138;21.002;2023-07-13T16:45:56;0.30;;;0.30;;
76125;SDS011;65174;48.138;21.002;2023-07-13T16:49:27;0.60;;;0.40;;
76125;SDS011;65174;48.138;21.002;2023-07-13T16:52:31;0.80;;;0.50;;
76125;SDS011;65174;48.138;21.002;2023-07-13T16:55:33;0.40;;;0.30;;
76125;SDS011;65174;48.138;21.002;2023-07-13T16:58:35;0.68;;;0.40;;
76125;SDS011;65174;48.138;21.002;2023-07-13T17:01:37;1.10;;;0.60;;
76125;SDS011;65174;48.138;21.002;2023-07-13T17:04:38;0.55;;;0.50;;
76125;SDS011;65174;48.138;21.002;2023-07-13T17:07:43;1.47;;;0.57;;
76125;SDS011;65174;48.138;21.002;2023-07-13T17:10:48;0.68;;;0.40;;
76125;SDS011;65174;48.138;21.002;2023-07-13T17:13:50;0.82;;;0.68;;
76125;SDS011;65174;48.138;21.002;2023-07-13T17:16:53;0.95;;;0.60;;
76125;SDS011;65174;48.138;21.002;2023-07-13T17:19:59;1.15;;;0.90;;
76125;SDS011;65174;48.138;21.002;2023-07-13T17:23:01;1.10;;;0.80;;
76125;SDS011;65174;48.138;21.002;2023-07-13T17:26:04;1.00;;;0.60;;
76125;SDS011;65174;48.138;21.002;2023-07-13T17:29:05;0.77;;;0.70;;
76125;SDS011;65174;48.138;21.002;2023-07-13T17:32:18;0.60;;;0.60;;
76125;SDS011;65174;48.138;21.002;2023-07-13T17:35:23;0.70;;;0.63;;
76125;SDS011;65174;48.138;21.002;2023-07-13T17:38:37;0.90;;;0.60;;
76125;SDS011;65174;48.138;21.002;2023-07-13T17:41:43;0.52;;;0.50;;
76125;SDS011;65174;48.138;21.002;2023-07-13T17:44:46;1.25;;;0.90;;
76125;SDS011;65174;48.138;21.002;2023-07-13T17:47:50;1.60;;;0.70;;
76125;SDS011;65174;48.138;21.002;2023-07-13T17:50:54;0.85;;;0.75;;
76125;SDS011;65174;48.138;21.002;2023-07-13T17:54:01;0.73;;;0.73;;
76125;SDS011;65174;48.138;21.002;2023-07-13T17:57:03;0.95;;;0.60;;
76125;SDS011;65174;48.138;21.002;2023-07-13T18:00:05;1.17;;;0.80;;
76125;SDS011;65174;48.138;21.002;2023-07-13T18:03:28;1.23;;;0.57;;
76125;SDS011;65174;48.138;21.002;2023-07-13T18:06:35;2.55;;;0.73;;
76125;SDS011;65174;48.138;21.002;2023-07-13T18:09:40;1.93;;;0.97;;
76125;SDS011;65174;48.138;21.002;2023-07-13T18:12:46;3.30;;;0.80;;
76125;SDS011;65174;48.138;21.002;2023-07-13T18:15:48;1.23;;;0.82;;
76125;SDS011;65174;48.138;21.002;2023-07-13T18:18:55;4.63;;;0.90;;
76125;SDS011;65174;48.138;21.002;2023-07-13T18:21:59;1.10;;;0.82;;
76125;SDS011;65174;48.138;21.002;2023-07-13T18:25:24;1.13;;;1.00;;
76125;SDS011;65174;48.138;21.002;2023-07-13T18:28:26;1.80;;;1.08;;
76125;SDS011;65174;48.138;21.002;2023-07-13T18:31:30;2.35;;;1.23;;
76125;SDS011;65174;48.138;21.002;2023-07-13T18:34:39;3.08;;;1.58;;
76125;SDS011;65174;48.138;21.002;2023-07-13T18:37:45;2.13;;;1.58;;
76125;SDS011;65174;48.138;21.002;2023-07-13T18:40:47;2.57;;;1.27;;
76125;SDS011;65174;48.138;21.002;2023-07-13T18:43:50;2.10;;;1.27;;
76125;SDS011;65174;48.138;21.002;2023-07-13T18:46:54;3.25;;;1.42;;
76125;SDS011;65174;48.138;21.002;2023-07-13T18:49:56;1.25;;;1.15;;
76125;SDS011;65174;48.138;21.002;2023-07-13T18:53:00;1.73;;;1.52;;
76125;SDS011;65174;48.138;21.002;2023-07-13T18:56:02;1.60;;;1.30;;
76125;SDS011;65174;48.138;21.002;2023-07-13T18:59:05;3.72;;;1.20;;
76125;SDS011;65174;48.138;21.002;2023-07-13T19:02:11;1.52;;;1.30;;
76125;SDS011;65174;48.138;21.002;2023-07-13T19:05:24;1.48;;;1.20;;
76125;SDS011;65174;48.138;21.002;2023-07-13T19:08:28;1.40;;;1.20;;
76125;SDS011;65174;48.138;21.002;2023-07-13T19:11:30;2.03;;;1.17;;
76125;SDS011;65174;48.138;21.002;2023-07-13T19:14:32;2.50;;;0.93;;
76125;SDS011;65174;48.138;21.002;2023-07-13T19:17:34;1.85;;;1.15;;
76125;SDS011;65174;48.138;21.002;2023-07-13T19:20:37;1.40;;;1.00;;
76125;SDS011;65174;48.138;21.002;2023-07-13T19:23:41;1.13;;;0.80;;
76125;SDS011;65174;48.138;21.002;2023-07-13T19:26:46;2.13;;;1.20;;
76125;SDS011;65174;48.138;21.002;2023-07-13T19:29:52;2.60;;;1.08;;
76125;SDS011;65174;48.138;21.002;2023-07-13T19:32:54;1.52;;;0.93;;
76125;SDS011;65174;48.138;21.002;2023-07-13T19:36:00;1.17;;;1.02;;
76125;SDS011;65174;48.138;21.002;2023-07-13T19:39:03;1.50;;;1.10;;
76125;SDS011;65174;48.138;21.002;2023-07-13T19:42:16;2.13;;;1.07;;
76125;SDS011;65174;48.138;21.002;2023-07-13T19:45:22;1.75;;;1.10;;
76125;SDS011;65174;48.138;21.002;2023-07-13T19:48:25;1.80;;;0.90;;